Fazenda Tucunare Airport


Codes: SWTU/AZL
Name: Fazenda Tucunare Airport
City: Sapezal
Country: Brazil
Elevation: 1814 ft.

Photos at Fazenda Tucunare Airport


   Photos courtesy of SpottingLog. You can add your own sightings and photos by signing up for a free trial today.



No photos found.

Weather at Fazenda Tucunare Airport


Time (UTC)DescriptionTempratureWindCloud coverageVisibilityPressureHumidity
16-Jun-2024 00:00Clear Sky23°C2 mph, E5%10000m1014hPa52%
16-Jun-2024 03:00Clear Sky23°C4 mph, SE5%10000m1014hPa54%
16-Jun-2024 06:00Clear Sky22°C4 mph, E5%10000m1013hPa59%
16-Jun-2024 09:00Clear Sky19°C4 mph, E1%10000m1014hPa65%
16-Jun-2024 12:00Few Clouds23°C7 mph, E13%10000m1016hPa55%
16-Jun-2024 15:00Broken Clouds30°C9 mph, NE54%10000m1015hPa35%
16-Jun-2024 18:00Scattered Clouds32°C7 mph, NE29%10000m1011hPa29%
16-Jun-2024 21:00Clear Sky28°C2 mph, N0%10000m1011hPa42%
17-Jun-2024 00:00Clear Sky23°C4 mph, SE0%10000m1012hPa50%
17-Jun-2024 03:00Clear Sky22°C2 mph, E0%10000m1013hPa52%
17-Jun-2024 06:00Clear Sky20°C2 mph, E0%10000m1012hPa54%
17-Jun-2024 09:00Clear Sky19°C4 mph, E0%10000m1012hPa54%
17-Jun-2024 12:00Clear Sky22°C4 mph, NE0%10000m1014hPa45%
17-Jun-2024 15:00Clear Sky30°C7 mph, NE0%10000m1013hPa30%
17-Jun-2024 18:00Clear Sky32°C7 mph, N0%10000m1009hPa27%
17-Jun-2024 21:00Clear Sky28°C4 mph, NE0%10000m1008hPa40%
18-Jun-2024 00:00Clear Sky24°C4 mph, NE0%10000m1010hPa42%
18-Jun-2024 03:00Clear Sky22°C4 mph, NE1%10000m1011hPa46%
18-Jun-2024 06:00Clear Sky21°C4 mph, NE0%10000m1010hPa49%
18-Jun-2024 09:00Clear Sky20°C7 mph, N0%10000m1011hPa55%
18-Jun-2024 12:00Clear Sky23°C4 mph, NE0%10000m1012hPa50%
18-Jun-2024 15:00Clear Sky31°C7 mph, N0%10000m1011hPa31%
18-Jun-2024 18:00Clear Sky33°C9 mph, N0%10000m1007hPa25%
18-Jun-2024 21:00Clear Sky28°C4 mph, NE3%10000m1007hPa38%
19-Jun-2024 00:00Few Clouds25°C7 mph, NE12%10000m1009hPa43%
19-Jun-2024 03:00Clear Sky22°C7 mph, NE1%10000m1010hPa49%
19-Jun-2024 06:00Clear Sky20°C2 mph, NW1%10000m1010hPa55%
19-Jun-2024 09:00Clear Sky20°C4 mph, N0%10000m1011hPa56%
19-Jun-2024 12:00Clear Sky24°C4 mph, N1%10000m1013hPa49%
19-Jun-2024 15:00Clear Sky31°C9 mph, N3%10000m1012hPa32%
19-Jun-2024 18:00Few Clouds33°C9 mph, N21%10000m1009hPa29%
19-Jun-2024 21:00Few Clouds29°C4 mph, NE18%10000m1008hPa41%
20-Jun-2024 00:00Clear Sky24°C4 mph, NE10%10000m1010hPa47%
20-Jun-2024 03:00Few Clouds22°C4 mph, NE23%10000m1012hPa54%
20-Jun-2024 06:00Clear Sky21°C2 mph, W6%10000m1011hPa61%
20-Jun-2024 09:00Clear Sky21°C2 mph, W4%10000m1012hPa62%
20-Jun-2024 12:00Scattered Clouds25°C2 mph, SE45%10000m1014hPa53%
20-Jun-2024 15:00Few Clouds32°C4 mph, NE23%10000m1013hPa34%
20-Jun-2024 18:00Scattered Clouds34°C4 mph, NE33%10000m1010hPa26%
20-Jun-2024 21:00Overcast Clouds29°C2 mph, NW100%10000m1009hPa38%